createdAt,value
2022-09-07T00:01:18.833Z,99273.65
2022-09-07T00:03:47.057Z,99269.96
2022-09-07T00:06:15.375Z,99271.29
2022-09-07T00:08:43.887Z,99266.59
2022-09-07T00:11:15.164Z,99265.53
2022-09-07T00:13:45.884Z,99262.36
2022-09-07T00:16:22.630Z,99260.92
2022-09-07T00:18:57.240Z,99259.30
2022-09-07T00:21:26.091Z,99260.87
2022-09-07T00:23:54.866Z,99261.64
2022-09-07T00:26:25.960Z,99258.86
2022-09-07T00:28:58.132Z,99260.04
2022-09-07T00:31:27.396Z,99257.75
2022-09-07T00:33:59.044Z,99254.58
2022-09-07T00:36:27.412Z,99257.59
2022-09-07T00:38:55.658Z,99264.89
2022-09-07T00:41:24.798Z,99263.19
2022-09-07T00:43:56.029Z,99266.02
2022-09-07T00:46:25.915Z,99259.69
2022-09-07T00:49:08.378Z,99256.48
2022-09-07T00:51:42.364Z,99255.83
2022-09-07T00:54:17.762Z,99256.08
2022-09-07T00:56:49.331Z,99254.20
2022-09-07T00:59:22.115Z,99256.47
2022-09-07T01:01:52.079Z,99249.55
2022-09-07T01:04:22.361Z,99244.38
2022-09-07T01:06:52.609Z,99242.05
2022-09-07T01:09:24.099Z,99239.16
2022-09-07T01:11:54.287Z,99239.77
2022-09-07T01:14:27.018Z,99238.94
2022-09-07T01:17:10.857Z,99238.40
2022-09-07T01:20:28.452Z,99238.17
2022-09-07T01:23:38.273Z,99233.73
2022-09-07T01:26:37.216Z,99234.21
2022-09-07T01:29:46.949Z,99229.87
2022-09-07T01:32:27.899Z,99225.37
2022-09-07T01:34:56.968Z,99228.77
2022-09-07T01:37:43.043Z,99228.39
2022-09-07T01:40:23.683Z,99223.31
2022-09-07T01:43:02.565Z,99218.05
2022-09-07T01:45:36.262Z,99214.67
2022-09-07T01:48:11.538Z,99208.98
2022-09-07T01:51:02.464Z,99206.81
2022-09-07T01:53:45.749Z,99206.67
2022-09-07T01:56:36.683Z,99206.16
2022-09-07T01:59:08.963Z,99202.95
2022-09-07T02:01:55.329Z,99204.52
2022-09-07T02:04:56.461Z,99206.94
2022-09-07T02:08:00.594Z,99204.41
2022-09-07T02:10:39.198Z,99206.79
2022-09-07T02:13:16.653Z,99207.16
2022-09-07T02:15:58.601Z,99211.11
2022-09-07T02:18:30.951Z,99207.70
2022-09-07T02:21:02.079Z,99207.52
2022-09-07T02:23:37.394Z,99206.05
2022-09-07T02:26:16.130Z,99198.81
2022-09-07T02:28:44.227Z,99200.37
2022-09-07T02:31:13.111Z,99203.98
2022-09-07T02:33:42.752Z,99204.08
2022-09-07T02:36:16.362Z,99205.92
2022-09-07T02:38:44.446Z,99210.33
2022-09-07T02:41:52.851Z,99205.13
2022-09-07T02:44:26.496Z,99206.05
2022-09-07T02:47:01.832Z,99209.08
2022-09-07T02:49:55.670Z,99212.92
2022-09-07T02:53:00.660Z,99210.62
2022-09-07T02:56:07.189Z,99207.32
2022-09-07T02:59:11.608Z,99208.97
2022-09-07T03:02:35.029Z,99205.55
2022-09-07T03:05:25.232Z,99198.20
2022-09-07T03:08:12.913Z,99197.14
2022-09-07T03:10:43.191Z,99196.65
2022-09-07T03:13:23.384Z,99197.20
2022-09-07T03:15:55.760Z,99197.02
2022-09-07T03:18:27.218Z,99196.20
2022-09-07T03:20:55.971Z,99190.90
2022-09-07T03:23:24.083Z,99189.38
2022-09-07T03:25:52.998Z,99192.52
2022-09-07T03:28:21.927Z,99192.77
2022-09-07T03:30:50.355Z,99188.35
2022-09-07T03:33:19.570Z,99180.40
2022-09-07T03:35:58.114Z,99177.73
2022-09-07T03:38:28.114Z,99177.96
2022-09-07T03:41:05.395Z,99176.85
2022-09-07T03:43:34.176Z,99174.06
2022-09-07T03:46:05.626Z,99174.05
2022-09-07T03:48:35.708Z,99177.91
2022-09-07T03:51:10.572Z,99175.42
2022-09-07T03:53:41.904Z,99171.69
2022-09-07T03:56:16.356Z,99169.50
2022-09-07T03:58:45.707Z,99170.70
2022-09-07T04:01:24.948Z,99171.99
2022-09-07T04:04:00.050Z,99166.77
2022-09-07T04:06:31.642Z,99165.98
2022-09-07T04:09:08.961Z,99167.61
2022-09-07T04:11:40.762Z,99166.55
2022-09-07T04:14:10.621Z,99160.63
2022-09-07T04:16:40.650Z,99154.31
2022-09-07T04:19:10.899Z,99158.02
2022-09-07T04:21:39.189Z,99159.20
2022-09-07T04:24:09.132Z,99157.77
2022-09-07T04:26:39.111Z,99153.51
2022-09-07T04:29:09.795Z,99156.92
2022-09-07T04:31:38.968Z,99156.08
2022-09-07T04:34:08.578Z,99158.52
2022-09-07T04:36:36.936Z,99159.18
2022-09-07T04:39:12.941Z,99167.02
2022-09-07T04:41:42.933Z,99167.86
2022-09-07T04:44:16.607Z,99165.80
2022-09-07T04:46:45.911Z,99166.41
2022-09-07T04:49:20.945Z,99163.23
2022-09-07T04:51:53.872Z,99162.38
2022-09-07T04:54:23.311Z,99160.55
2022-09-07T04:56:52.098Z,99159.05
2022-09-07T04:59:19.988Z,99157.89
2022-09-07T05:01:48.875Z,99156.34
2022-09-07T05:04:18.118Z,99157.83
2022-09-07T05:06:48.129Z,99159.72
2022-09-07T05:09:18.040Z,99160.20
2022-09-07T05:11:46.750Z,99161.45
2022-09-07T05:14:18.351Z,99162.39
2022-09-07T05:16:52.061Z,99162.86
2022-09-07T05:19:28.058Z,99165.72
2022-09-07T05:21:58.793Z,99174.09
2022-09-07T05:24:29.542Z,99174.21
2022-09-07T05:26:59.297Z,99171.00
2022-09-07T05:32:19.427Z,99171.15
2022-09-07T05:34:50.850Z,99172.21
2022-09-07T05:37:20.270Z,99175.13
2022-09-07T05:39:49.196Z,99171.54
2022-09-07T05:42:17.576Z,99171.23
2022-09-07T05:44:46.038Z,99169.14
2022-09-07T05:47:14.627Z,99163.77
2022-09-07T05:49:43.349Z,99163.30
2022-09-07T05:52:14.158Z,99168.64
2022-09-07T05:54:43.600Z,99165.52
2022-09-07T05:57:13.290Z,99165.76
2022-09-07T05:59:41.877Z,99165.06
2022-09-07T06:02:15.541Z,99161.34
2022-09-07T06:04:49.090Z,99155.88
2022-09-07T06:07:23.049Z,99153.59
2022-09-07T06:15:56.375Z,99150.73
2022-09-07T06:18:24.875Z,99148.92
2022-09-07T06:20:54.358Z,99152.77
2022-09-07T06:23:22.625Z,99156.66
2022-09-07T06:25:55.695Z,99155.11
2022-09-07T06:28:32.075Z,99152.95
2022-09-07T06:31:09.621Z,99156.27
2022-09-07T06:33:38.128Z,99151.57
2022-09-07T06:36:35.902Z,99151.75
2022-09-07T06:39:05.276Z,99147.27
2022-09-07T06:44:31.469Z,99142.79
2022-09-07T06:47:02.518Z,99137.40
2022-09-07T06:49:30.721Z,99133.61
2022-09-07T06:52:00.221Z,99129.95
2022-09-07T06:57:16.892Z,99134.02
2022-09-07T06:59:48.012Z,99138.63
2022-09-07T07:02:17.120Z,99137.96
2022-09-07T07:04:48.213Z,99138.58
2022-09-07T07:07:17.288Z,99144.56
2022-09-07T07:09:46.613Z,99149.43
2022-09-07T07:14:46.171Z,99157.04
2022-09-07T07:17:17.053Z,99160.30
2022-09-07T07:19:45.672Z,99159.55
2022-09-07T07:22:46.926Z,99162.16
2022-09-07T07:25:03.690Z,99160.79
2022-09-07T07:27:33.422Z,99160.80
2022-09-07T07:30:01.447Z,99158.54
2022-09-07T07:32:30.369Z,99156.41
2022-09-07T07:34:59.442Z,99151.14
2022-09-07T07:37:28.313Z,99149.73
2022-09-07T07:42:41.743Z,99147.57
2022-09-07T07:48:00.886Z,99151.58
2022-09-07T07:50:31.850Z,99147.17
2022-09-07T07:55:49.548Z,99148.16
2022-09-07T07:58:28.296Z,99147.53
2022-09-07T08:01:14.208Z,99147.58
2022-09-07T08:03:44.285Z,99146.79
2022-09-07T08:06:14.961Z,99146.22
2022-09-07T08:08:45.949Z,99143.04
2022-09-07T08:11:18.004Z,99140.98
2022-09-07T08:13:49.702Z,99143.46
2022-09-07T08:16:18.498Z,99141.05
2022-09-07T08:18:47.208Z,99139.75
2022-09-07T08:21:17.709Z,99142.86
2022-09-07T08:23:46.416Z,99143.42
2022-09-07T08:26:16.668Z,99140.50
2022-09-07T08:28:46.951Z,99135.70
2022-09-07T08:31:17.621Z,99134.77
2022-09-07T08:33:45.834Z,99133.88
2022-09-07T08:36:20.042Z,99131.94
2022-09-07T08:38:48.931Z,99131.11
2022-09-07T08:41:35.382Z,99130.52
2022-09-07T08:44:33.229Z,99131.05
2022-09-07T08:47:12.314Z,99128.61
2022-09-07T08:49:51.852Z,99114.69
2022-09-07T08:52:26.617Z,99101.07
2022-09-07T08:55:24.134Z,99101.27
2022-09-07T08:58:38.557Z,99095.35
2022-09-07T09:04:19.334Z,99092.95
2022-09-07T09:06:56.027Z,99089.98
2022-09-07T09:09:54.771Z,99083.90
2022-09-07T09:12:46.569Z,99083.40
2022-09-07T09:15:59.686Z,99080.75
2022-09-07T09:18:32.573Z,99082.52
2022-09-07T09:21:01.825Z,99085.84
2022-09-07T09:23:41.626Z,99080.73
2022-09-07T09:26:29.599Z,99079.82
2022-09-07T09:28:58.457Z,99083.11
2022-09-07T09:31:36.168Z,99084.15
2022-09-07T09:34:11.333Z,99082.27
2022-09-07T09:36:50.070Z,99080.83
2022-09-07T09:39:31.177Z,99076.55
2022-09-07T09:42:24.250Z,99079.46
2022-09-07T09:44:54.360Z,99079.86
2022-09-07T09:47:30.572Z,99078.11
2022-09-07T09:50:03.813Z,99078.85
2022-09-07T09:52:47.741Z,99073.49
2022-09-07T09:55:35.858Z,99074.48
2022-09-07T10:06:28.019Z,99062.35
2022-09-07T10:09:02.117Z,99062.06
2022-09-07T10:12:08.946Z,99063.64
2022-09-07T10:14:46.810Z,99065.88
2022-09-07T10:17:41.825Z,99066.06
2022-09-07T10:20:22.367Z,99068.16
2022-09-07T10:22:53.294Z,99060.49
2022-09-07T10:25:36.520Z,99055.40
2022-09-07T10:28:15.663Z,99052.76
2022-09-07T10:31:15.758Z,99055.20
2022-09-07T10:34:32.532Z,99041.62
2022-09-07T10:37:07.711Z,99039.14
2022-09-07T10:39:42.072Z,99042.35
2022-09-07T10:42:29.358Z,99044.20
2022-09-07T10:45:21.044Z,99044.02
2022-09-07T10:48:10.451Z,99041.29
2022-09-07T10:50:50.300Z,99040.50
2022-09-07T10:53:41.689Z,99042.11
2022-09-07T10:56:19.833Z,99036.47
2022-09-07T10:59:05.346Z,99035.38
2022-09-07T11:01:49.774Z,99031.86
2022-09-07T11:04:53.064Z,99031.93
2022-09-07T11:07:53.651Z,99040.53
2022-09-07T11:10:52.685Z,99041.51
2022-09-07T11:13:28.381Z,99040.39
2022-09-07T11:16:50.578Z,99036.37
2022-09-07T11:19:35.987Z,99038.23
2022-09-07T11:22:41.790Z,99033.16
2022-09-07T11:25:30.714Z,99030.09
2022-09-07T11:28:23.284Z,99022.76
2022-09-07T11:31:00.427Z,99022.16
2022-09-07T11:36:46.370Z,99023.05
2022-09-07T11:39:21.133Z,99021.56
2022-09-07T11:42:42.820Z,99021.88
2022-09-07T11:45:01.006Z,99017.03
2022-09-07T11:47:48.150Z,99012.80
2022-09-07T11:50:23.786Z,99015.91
2022-09-07T11:53:02.570Z,99011.20
2022-09-07T11:55:36.585Z,99009.63
2022-09-07T11:58:33.018Z,99005.95
2022-09-07T12:01:07.114Z,99003.30
2022-09-07T12:04:15.181Z,99002.23
2022-09-07T12:06:59.529Z,98998.14
2022-09-07T12:09:38.370Z,99002.22
2022-09-07T12:12:23.862Z,98999.45
2022-09-07T12:15:34.975Z,98993.50
2022-09-07T12:18:24.515Z,98989.66
2022-09-07T12:20:54.894Z,98988.94
2022-09-07T12:23:31.707Z,98987.23
2022-09-07T12:26:39.044Z,98982.27
2022-09-07T12:29:20.433Z,98981.36
2022-09-07T12:31:59.813Z,98978.03
2022-09-07T12:34:36.006Z,98977.14
2022-09-07T12:37:14.382Z,98971.52
2022-09-07T12:39:45.176Z,98970.38
2022-09-07T12:42:37.462Z,98965.77
2022-09-07T12:45:34.428Z,98970.46
2022-09-07T12:48:18.835Z,98963.53
2022-09-07T12:51:04.407Z,98956.60
2022-09-07T12:54:00.393Z,98950.59
2022-09-07T12:56:42.749Z,98950.20
2022-09-07T12:59:46.639Z,98946.15
2022-09-07T13:02:23.120Z,98945.27
2022-09-07T13:05:06.121Z,98937.52
2022-09-07T13:08:08.006Z,98937.78
2022-09-07T13:10:39.727Z,98936.70
2022-09-07T13:17:16.079Z,98928.38
2022-09-07T13:20:04.779Z,98927.91
2022-09-07T13:22:32.900Z,98926.14
2022-09-07T13:25:23.901Z,98931.92
2022-09-07T13:28:04.099Z,98928.83
2022-09-07T13:31:04.751Z,98927.77
2022-09-07T13:33:35.436Z,98925.69
2022-09-07T13:36:06.206Z,98923.07
2022-09-07T13:38:41.684Z,98916.14
2022-09-07T13:41:17.757Z,98920.41
2022-09-07T13:43:50.777Z,98925.93
2022-09-07T13:46:40.227Z,98926.10
2022-09-07T13:49:30.533Z,98926.98
2022-09-07T13:52:50.298Z,98924.33
2022-09-07T13:55:32.076Z,98922.04
2022-09-07T13:58:22.555Z,98919.48
2022-09-07T14:01:02.856Z,98916.97
2022-09-07T14:03:44.014Z,98912.05
2022-09-07T14:06:29.888Z,98908.88
2022-09-07T14:09:00.072Z,98907.35
2022-09-07T14:11:39.531Z,98912.10
2022-09-07T14:14:21.428Z,98909.75
2022-09-07T14:16:59.765Z,98910.02
2022-09-07T14:19:49.646Z,98909.42
2022-09-07T14:22:22.018Z,98907.18
2022-09-07T14:24:56.449Z,98897.88
2022-09-07T14:27:37.416Z,98900.68
2022-09-07T14:30:24.987Z,98899.62
2022-09-07T14:33:09.215Z,98900.73
2022-09-07T14:35:41.790Z,98897.17
2022-09-07T14:41:17.752Z,98903.85
2022-09-07T14:43:57.701Z,98900.63
2022-09-07T14:46:55.126Z,98899.77
2022-09-07T14:49:24.836Z,98895.04
2022-09-07T14:51:57.884Z,98899.57
2022-09-07T14:54:29.571Z,98896.14
2022-09-07T14:57:20.825Z,98895.27
2022-09-07T14:59:48.823Z,98899.50
2022-09-07T15:02:28.601Z,98894.54
2022-09-07T15:05:21.037Z,98889.08
2022-09-07T15:07:58.796Z,98879.98
2022-09-07T15:10:30.701Z,98878.21
2022-09-07T15:13:01.366Z,98878.63
2022-09-07T15:15:35.189Z,98877.88
2022-09-07T15:18:25.831Z,98878.77
2022-09-07T15:20:55.187Z,98878.03
2022-09-07T15:23:23.490Z,98879.48
2022-09-07T15:25:54.028Z,98874.48
2022-09-07T15:34:10.189Z,98882.96
2022-09-07T15:36:41.452Z,98885.49
2022-09-07T15:39:23.000Z,98889.33
2022-09-07T15:41:51.720Z,98889.73
2022-09-07T15:44:24.997Z,98885.23
2022-09-07T15:49:49.517Z,98885.67
2022-09-07T15:52:20.453Z,98886.01
2022-09-07T15:54:51.010Z,98877.52
2022-09-07T16:00:08.058Z,98870.95
2022-09-07T16:05:31.772Z,98862.73
2022-09-07T16:11:24.227Z,98854.13
2022-09-07T16:14:01.721Z,98852.10
2022-09-07T16:19:21.944Z,98845.40
2022-09-07T16:21:50.253Z,98847.06
2022-09-07T16:24:19.873Z,98847.67
2022-09-07T16:26:49.465Z,98844.59
2022-09-07T16:29:19.937Z,98838.75
2022-09-07T16:34:37.118Z,98845.21
2022-09-07T16:37:05.330Z,98848.20
2022-09-07T16:39:35.739Z,98852.86
2022-09-07T16:42:04.993Z,98854.63
2022-09-07T16:44:35.172Z,98853.95
2022-09-07T16:47:05.087Z,98854.80
2022-09-07T16:49:34.300Z,98852.66
2022-09-07T16:52:03.156Z,98849.11
2022-09-07T16:54:32.645Z,98846.84
2022-09-07T16:57:02.481Z,98844.93
2022-09-07T16:59:34.711Z,98841.52
2022-09-07T17:02:02.687Z,98843.20
2022-09-07T17:04:31.024Z,98842.89
2022-09-07T17:07:00.750Z,98839.98
2022-09-07T17:09:32.939Z,98833.93
2022-09-07T17:12:01.225Z,98834.58
2022-09-07T17:14:31.215Z,98834.84
2022-09-07T17:17:00.199Z,98841.40
2022-09-07T17:19:29.435Z,98845.39
2022-09-07T17:21:59.853Z,98851.46
2022-09-07T17:24:28.422Z,98850.65
2022-09-07T17:26:59.417Z,98850.59
2022-09-07T17:29:30.598Z,98851.90
2022-09-07T17:34:51.373Z,98852.17
2022-09-07T17:37:19.764Z,98851.16
2022-09-07T17:39:55.267Z,98854.75
2022-09-07T17:43:38.872Z,98855.27
2022-09-07T17:45:18.113Z,98859.80
2022-09-07T17:47:49.605Z,98864.58
2022-09-07T17:50:18.300Z,98863.40
2022-09-07T17:52:52.707Z,98867.70
2022-09-07T17:55:21.273Z,98874.87
2022-09-07T17:57:49.764Z,98878.71
2022-09-07T18:00:18.453Z,98879.34
2022-09-07T18:02:47.880Z,98879.05
2022-09-07T18:05:18.348Z,98878.73
2022-09-07T18:07:49.327Z,98879.98
2022-09-07T18:10:18.661Z,98876.66
2022-09-07T18:12:47.934Z,98879.48
2022-09-07T18:15:18.614Z,98881.34
2022-09-07T18:17:48.443Z,98879.81
2022-09-07T18:20:17.145Z,98891.15
2022-09-07T18:22:46.234Z,98894.06
2022-09-07T18:25:14.531Z,98894.36
2022-09-07T18:27:44.394Z,98893.58
2022-09-07T18:30:16.171Z,98895.67
2022-09-07T18:32:45.196Z,98902.94
2022-09-07T18:35:13.155Z,98901.59
2022-09-07T18:37:42.926Z,98901.45
2022-09-07T18:40:12.422Z,98904.81
2022-09-07T18:42:42.631Z,98904.59
2022-09-07T18:48:00.372Z,98899.79
2022-09-07T18:50:30.163Z,98905.94
2022-09-07T18:53:07.294Z,98904.73
2022-09-07T18:55:44.192Z,98899.75
2022-09-07T18:58:13.013Z,98901.39
2022-09-07T19:00:47.686Z,98900.27
2022-09-07T19:03:17.289Z,98895.52
2022-09-07T19:05:50.351Z,98887.41
2022-09-07T19:08:19.448Z,98883.92
2022-09-07T19:10:47.734Z,98878.87
2022-09-07T19:13:16.291Z,98874.70
2022-09-07T19:15:44.602Z,98875.44
2022-09-07T19:18:14.430Z,98873.04
2022-09-07T19:20:44.875Z,98874.83
2022-09-07T19:23:13.492Z,98875.89
2022-09-07T19:25:42.980Z,98871.45
2022-09-07T19:28:11.178Z,98868.40
2022-09-07T19:30:39.554Z,98863.78
2022-09-07T19:33:14.678Z,98865.67
2022-09-07T19:35:44.947Z,98858.08
2022-09-07T19:38:14.639Z,98854.70
2022-09-07T19:40:42.650Z,98849.66
2022-09-07T19:43:11.688Z,98850.51
2022-09-07T19:45:41.261Z,98855.02
2022-09-07T19:48:09.090Z,98855.54
2022-09-07T19:50:39.080Z,98854.77
2022-09-07T19:53:10.474Z,98848.72
2022-09-07T19:55:39.848Z,98846.53
2022-09-07T19:58:08.920Z,98843.77
2022-09-07T20:00:40.705Z,98843.27
2022-09-07T20:03:11.352Z,98846.60
2022-09-07T20:05:42.642Z,98843.59
2022-09-07T20:08:10.602Z,98841.61
2022-09-07T20:10:38.673Z,98836.39
2022-09-07T20:13:07.659Z,98837.81
2022-09-07T20:15:41.248Z,98837.28
2022-09-07T20:18:09.087Z,98835.52
2022-09-07T20:20:41.050Z,98831.53
2022-09-07T20:23:08.983Z,98829.41
2022-09-07T20:25:36.851Z,98825.25
2022-09-07T20:28:04.800Z,98824.06
2022-09-07T20:30:34.314Z,98835.61
2022-09-07T20:33:04.066Z,98839.36
2022-09-07T20:35:32.318Z,98843.23
2022-09-07T20:38:02.783Z,98839.81
2022-09-07T20:40:32.552Z,98838.58
2022-09-07T20:43:00.554Z,98841.20
2022-09-07T20:45:31.885Z,98844.30
2022-09-07T20:48:01.008Z,98837.77
2022-09-07T20:50:28.892Z,98834.73
2022-09-07T20:52:56.720Z,98834.86
2022-09-07T20:55:24.835Z,98830.61
2022-09-07T20:57:53.718Z,98834.80
2022-09-07T21:00:22.232Z,98839.55
2022-09-07T21:02:52.051Z,98842.50
2022-09-07T21:05:21.606Z,98837.08
2022-09-07T21:07:52.811Z,98835.15
2022-09-07T21:10:20.635Z,98840.45
2022-09-07T21:12:48.482Z,98846.44
2022-09-07T21:15:17.097Z,98849.03
2022-09-07T21:17:45.358Z,98854.73
2022-09-07T21:20:13.990Z,98854.69
2022-09-07T21:22:42.848Z,98849.83
2022-09-07T21:25:10.853Z,98847.66
2022-09-07T21:27:38.998Z,98846.12
2022-09-07T21:30:10.607Z,98848.25
2022-09-07T21:32:38.628Z,98847.30
2022-09-07T21:35:08.287Z,98852.02
2022-09-07T21:37:37.556Z,98847.92
2022-09-07T21:40:06.701Z,98850.52
2022-09-07T21:42:35.021Z,98850.98
2022-09-07T21:45:04.854Z,98849.66
2022-09-07T21:47:33.802Z,98855.23
2022-09-07T21:50:01.827Z,98852.08
2022-09-07T21:52:29.683Z,98850.34
2022-09-07T21:54:57.986Z,98847.38
2022-09-07T21:57:26.358Z,98842.95
2022-09-07T21:59:54.841Z,98843.54
2022-09-07T22:02:23.032Z,98840.16
2022-09-07T22:04:51.846Z,98835.27
2022-09-07T22:07:20.617Z,98827.67
2022-09-07T22:09:48.836Z,98826.29
2022-09-07T22:12:18.604Z,98823.52
2022-09-07T22:14:49.913Z,98824.35
2022-09-07T22:17:17.792Z,98821.12
2022-09-07T22:19:45.856Z,98816.27
2022-09-07T22:22:16.733Z,98813.06
2022-09-07T22:24:44.758Z,98806.58
2022-09-07T22:27:12.976Z,98802.51
2022-09-07T22:29:41.092Z,98802.29
2022-09-07T22:32:09.024Z,98802.52
2022-09-07T22:34:37.010Z,98797.41
2022-09-07T22:37:04.890Z,98791.27
2022-09-07T22:39:33.028Z,98789.55
2022-09-07T22:42:00.800Z,98789.89
2022-09-07T22:44:30.473Z,98786.91
2022-09-07T22:46:58.639Z,98781.45
2022-09-07T22:49:26.632Z,98781.70
2022-09-07T22:51:54.778Z,98783.80
2022-09-07T22:54:23.515Z,98777.38
2022-09-07T22:56:51.406Z,98777.48
2022-09-07T22:59:21.096Z,98771.90
2022-09-07T23:01:50.691Z,98768.71
2022-09-07T23:04:21.827Z,98765.02
2022-09-07T23:06:50.841Z,98760.63
2022-09-07T23:09:19.251Z,98764.45
2022-09-07T23:11:48.398Z,98760.70
2022-09-07T23:14:19.817Z,98762.52
2022-09-07T23:16:51.110Z,98764.40
2022-09-07T23:19:19.885Z,98759.91
2022-09-07T23:21:48.216Z,98758.67
2022-09-07T23:24:18.783Z,98758.55
2022-09-07T23:26:47.330Z,98761.02
2022-09-07T23:29:17.182Z,98756.51
2022-09-07T23:31:47.206Z,98755.92
2022-09-07T23:34:15.223Z,98751.14
2022-09-07T23:36:43.196Z,98747.63
2022-09-07T23:39:12.747Z,98737.08
2022-09-07T23:41:40.543Z,98736.31
2022-09-07T23:44:08.288Z,98738.55
2022-09-07T23:46:37.974Z,98734.98
2022-09-07T23:49:08.202Z,98736.55
2022-09-07T23:51:37.465Z,98733.88
2022-09-07T23:54:13.792Z,98730.45
2022-09-07T23:56:42.266Z,98726.45
2022-09-07T23:59:11.144Z,98724.41
